Main page
METAR-TAF:

METAR-TAF

Airports :

Salgado Filho International Airport

Porto Alegre, Rio Grande do Sul, Brazil

latitude: 30-00S, longitude: 051-11W, elevation: 3 m

Current weather observation

The report was made 24 minutes ago, at 10:00 UTC
Wind 2 kt from variable directions
Temperature 11°C
Humidity 100%
Pressure 1025 hPa
Visibility: 2000 m
patches of fog

METAR: SBPA 091000Z VRB02KT 8000 2000E BCFG NSC 11/11 Q1025

Time: 07:24 (10:24 UTC)

Forecast

The report was made 7 hours and 24 minutes ago, at 03:00 UTC
Forecast valid from 09 at 06 UTC to 10 at 06 UTC
Wind 7 kt from the East
Visibility 10 km or more
no clouds below 1500 m and no cumulonimbus

TAF: SBPA 090300Z 0906/1006 10007KT CAVOK TN10/0908Z TX22/0918Z RMK PED

Weather observations and forecasts of more than 4000 airports (METAR and TAF reports).

The available stations are represented by yellow and red dots on the map.

Hover mouse over dot to see the name of the station.

Then click to see weather observations and forecasts.

To change the map : click on the green buttons with a black cross to zoom in, on the green button with a dash to zoom out, or on the green arrows for adjacent maps.


METAR-TAF: